createdAt,value
2023-02-06T00:02:17.379Z,-2.82
2023-02-06T00:04:49.012Z,-2.82
2023-02-06T00:07:20.416Z,-2.83
2023-02-06T00:09:51.890Z,-2.75
2023-02-06T00:12:23.401Z,-2.72
2023-02-06T00:14:54.845Z,-2.69
2023-02-06T00:17:26.239Z,-2.85
2023-02-06T00:19:57.659Z,-2.93
2023-02-06T00:22:29.164Z,-2.75
2023-02-06T00:25:00.804Z,-2.75
2023-02-06T00:27:32.911Z,-2.68
2023-02-06T00:30:06.097Z,-2.75
2023-02-06T00:32:38.214Z,-2.73
2023-02-06T00:35:10.224Z,-2.78
2023-02-06T00:37:41.826Z,-2.80
2023-02-06T00:40:15.091Z,-2.73
2023-02-06T00:42:46.546Z,-2.75
2023-02-06T00:45:18.222Z,-2.79
2023-02-06T00:47:49.633Z,-2.76
2023-02-06T00:50:21.537Z,-2.69
2023-02-06T00:52:53.021Z,-2.80
2023-02-06T00:55:24.408Z,-2.73
2023-02-06T00:57:55.837Z,-2.74
2023-02-06T01:00:27.254Z,-2.80
2023-02-06T01:02:58.856Z,-2.81
2023-02-06T01:05:30.584Z,-2.71
2023-02-06T01:08:04.352Z,-2.55
2023-02-06T01:10:36.264Z,-2.57
2023-02-06T01:13:07.665Z,-2.66
2023-02-06T01:15:39.425Z,-2.76
2023-02-06T01:18:12.095Z,-2.81
2023-02-06T01:20:44.462Z,-2.68
2023-02-06T01:23:16.130Z,-2.78
2023-02-06T01:25:47.675Z,-2.69
2023-02-06T01:28:19.370Z,-2.70
2023-02-06T01:30:50.844Z,-2.70
2023-02-06T01:33:22.282Z,-2.73
2023-02-06T01:35:59.498Z,-2.82
2023-02-06T01:38:31.001Z,-2.92
2023-02-06T01:41:03.489Z,-3.00
2023-02-06T01:43:37.125Z,-3.04
2023-02-06T01:46:09.604Z,-3.06
2023-02-06T01:48:43.938Z,-3.02
2023-02-06T01:51:18.864Z,-3.01
2023-02-06T01:53:55.166Z,-3.05
2023-02-06T01:56:28.572Z,-3.06
2023-02-06T01:59:03.497Z,-3.05
2023-02-06T02:01:35.845Z,-3.07
2023-02-06T02:04:10.297Z,-3.21
2023-02-06T02:06:43.498Z,-3.30
2023-02-06T02:09:15.408Z,-3.31
2023-02-06T02:11:46.872Z,-3.22
2023-02-06T02:14:20.310Z,-3.24
2023-02-06T02:17:02.761Z,-3.14
2023-02-06T02:20:13.166Z,-3.25
2023-02-06T02:23:06.357Z,-3.23
2023-02-06T02:26:00.340Z,-3.26
2023-02-06T02:29:00.739Z,-3.23
2023-02-06T02:32:08.051Z,-3.25
2023-02-06T02:34:59.321Z,-3.27
2023-02-06T02:37:41.193Z,-3.22
2023-02-06T02:40:20.702Z,-3.19
2023-02-06T02:43:01.761Z,-3.33
2023-02-06T02:45:38.414Z,-3.38
2023-02-06T02:48:15.921Z,-3.40
2023-02-06T02:50:47.355Z,-3.45
2023-02-06T02:53:19.391Z,-3.54
2023-02-06T02:55:50.876Z,-3.58
2023-02-06T02:58:28.768Z,-3.45
2023-02-06T03:01:03.819Z,-3.33
2023-02-06T03:03:36.525Z,-3.27
2023-02-06T03:06:28.497Z,-3.41
2023-02-06T03:09:10.307Z,-3.46
2023-02-06T03:11:47.062Z,-3.55
2023-02-06T03:14:24.782Z,-3.63
2023-02-06T03:17:01.216Z,-3.50
2023-02-06T03:19:37.021Z,-3.34
2023-02-06T03:22:08.729Z,-3.25
2023-02-06T03:24:41.849Z,-3.28
2023-02-06T03:27:17.483Z,-3.24
2023-02-06T03:29:51.932Z,-3.17
2023-02-06T03:32:27.320Z,-3.20
2023-02-06T03:35:03.118Z,-3.27
2023-02-06T03:37:37.197Z,-3.33
2023-02-06T03:40:11.768Z,-3.33
2023-02-06T03:42:47.396Z,-3.38
2023-02-06T03:45:25.885Z,-3.34
2023-02-06T03:48:03.507Z,-3.25
2023-02-06T03:50:38.217Z,-3.28
2023-02-06T03:53:08.349Z,-3.26
2023-02-06T03:55:41.614Z,-3.28
2023-02-06T03:58:16.151Z,-3.32
2023-02-06T04:00:49.705Z,-3.31
2023-02-06T04:03:23.130Z,-3.29
2023-02-06T04:05:54.532Z,-3.24
2023-02-06T04:08:26.084Z,-3.30
2023-02-06T04:10:57.441Z,-3.35
2023-02-06T04:13:28.870Z,-3.33
2023-02-06T04:16:00.316Z,-3.38
2023-02-06T04:18:31.851Z,-3.46
2023-02-06T04:21:08.682Z,-3.53
2023-02-06T04:23:40.060Z,-3.59
2023-02-06T04:26:11.476Z,-3.61
2023-02-06T04:28:42.911Z,-3.75
2023-02-06T04:31:14.241Z,-3.80
2023-02-06T04:33:45.961Z,-3.83
2023-02-06T04:36:22.625Z,-3.86
2023-02-06T04:38:59.528Z,-3.82
2023-02-06T04:41:38.100Z,-3.72
2023-02-06T04:44:09.728Z,-3.72
2023-02-06T04:46:41.227Z,-3.75
2023-02-06T04:49:13.061Z,-3.79
2023-02-06T04:51:44.976Z,-3.96
2023-02-06T04:54:18.154Z,-4.00
2023-02-06T04:56:49.638Z,-3.94
2023-02-06T04:59:21.292Z,-3.96
2023-02-06T05:01:53.015Z,-4.03
2023-02-06T05:04:24.458Z,-4.02
2023-02-06T05:06:56.003Z,-4.08
2023-02-06T05:09:27.431Z,-4.12
2023-02-06T05:11:58.816Z,-4.11
2023-02-06T05:14:30.464Z,-4.16
2023-02-06T05:17:01.862Z,-4.27
2023-02-06T05:19:33.488Z,-4.26
2023-02-06T05:22:04.963Z,-4.22
2023-02-06T05:24:36.471Z,-4.18
2023-02-06T05:27:07.880Z,-4.18
2023-02-06T05:29:39.431Z,-4.19
2023-02-06T05:32:10.848Z,-4.17
2023-02-06T05:34:42.396Z,-4.20
2023-02-06T05:37:15.409Z,-4.18
2023-02-06T05:39:46.926Z,-4.11
2023-02-06T05:42:18.411Z,-4.18
2023-02-06T05:44:49.820Z,-4.12
2023-02-06T05:47:21.382Z,-4.13
2023-02-06T05:49:53.187Z,-4.17
2023-02-06T05:52:24.636Z,-4.23
2023-02-06T05:54:56.144Z,-4.26
2023-02-06T05:57:27.726Z,-4.23
2023-02-06T05:59:59.178Z,-4.35
2023-02-06T06:02:30.703Z,-4.47
2023-02-06T06:05:02.267Z,-4.35
2023-02-06T06:07:33.865Z,-4.27
2023-02-06T06:10:07.075Z,-4.36
2023-02-06T06:12:38.938Z,-4.35
2023-02-06T06:15:12.153Z,-4.38
2023-02-06T06:17:43.664Z,-4.51
2023-02-06T06:20:15.793Z,-4.59
2023-02-06T06:22:47.564Z,-4.56
2023-02-06T06:25:19.231Z,-4.45
2023-02-06T06:27:50.799Z,-4.36
2023-02-06T06:30:22.610Z,-4.50
2023-02-06T06:32:54.161Z,-4.52
2023-02-06T06:35:27.497Z,-4.51
2023-02-06T06:37:59.053Z,-4.49
2023-02-06T06:40:30.647Z,-4.45
2023-02-06T06:43:02.251Z,-4.45
2023-02-06T06:45:35.078Z,-4.43
2023-02-06T06:48:07.264Z,-4.37
2023-02-06T06:50:38.759Z,-4.33
2023-02-06T06:53:10.263Z,-4.38
2023-02-06T06:55:41.732Z,-4.42
2023-02-06T06:58:13.433Z,-4.47
2023-02-06T07:00:45.266Z,-4.49
2023-02-06T07:03:16.966Z,-4.56
2023-02-06T07:05:48.713Z,-4.60
2023-02-06T07:08:20.313Z,-4.58
2023-02-06T07:10:51.899Z,-4.48
2023-02-06T07:13:23.440Z,-4.34
2023-02-06T07:15:55.062Z,-4.27
2023-02-06T07:18:28.462Z,-4.11
2023-02-06T07:21:00.131Z,-4.04
2023-02-06T07:23:31.764Z,-3.89
2023-02-06T07:26:03.850Z,-3.82
2023-02-06T07:28:36.034Z,-3.60
2023-02-06T07:31:09.144Z,-3.47
2023-02-06T07:33:43.516Z,-3.24
2023-02-06T07:36:16.673Z,-3.14
2023-02-06T07:38:48.216Z,-3.04
2023-02-06T07:41:20.130Z,-2.70
2023-02-06T07:43:51.796Z,-2.39
2023-02-06T07:46:23.374Z,-2.08
2023-02-06T07:48:55.198Z,-1.92
2023-02-06T07:51:26.779Z,-1.76
2023-02-06T07:53:58.549Z,-1.37
2023-02-06T07:56:31.846Z,-1.14
2023-02-06T07:59:03.449Z,-1.24
2023-02-06T08:01:35.237Z,-1.21
2023-02-06T08:04:07.110Z,-1.02
2023-02-06T08:06:41.627Z,-1.05
2023-02-06T08:09:17.641Z,-1.00
2023-02-06T08:11:49.266Z,-1.06
2023-02-06T08:14:20.990Z,-0.94
2023-02-06T08:16:53.947Z,-0.81
2023-02-06T08:19:25.860Z,-0.65
2023-02-06T08:21:57.385Z,-0.63
2023-02-06T08:24:29.230Z,-0.71
2023-02-06T08:27:00.921Z,-0.72
2023-02-06T08:29:32.616Z,-0.40
2023-02-06T08:32:04.199Z,-0.02
2023-02-06T08:34:35.730Z,0.07
2023-02-06T08:37:07.434Z,0.11
2023-02-06T08:39:39.868Z,0.29
2023-02-06T08:42:11.514Z,0.34
2023-02-06T08:44:43.063Z,0.29
2023-02-06T08:47:14.823Z,0.22
2023-02-06T08:49:46.539Z,0.19
2023-02-06T08:52:18.154Z,0.14
2023-02-06T08:54:51.430Z,0.15
2023-02-06T08:57:23.034Z,0.15
2023-02-06T08:59:54.711Z,0.17
2023-02-06T09:02:26.275Z,0.16
2023-02-06T09:04:58.014Z,0.17
2023-02-06T09:07:30.013Z,0.22
2023-02-06T09:10:01.758Z,0.41
2023-02-06T09:12:33.351Z,0.54
2023-02-06T09:15:05.154Z,0.74
2023-02-06T09:17:36.804Z,0.84
2023-02-06T09:20:09.483Z,0.96
2023-02-06T09:22:42.137Z,1.11
2023-02-06T09:25:13.829Z,1.17
2023-02-06T09:27:47.050Z,1.29
2023-02-06T09:30:19.251Z,1.49
2023-02-06T09:32:50.821Z,1.73
2023-02-06T09:35:22.456Z,1.79
2023-02-06T09:37:54.215Z,1.76
2023-02-06T09:40:29.944Z,1.74
2023-02-06T09:43:02.912Z,1.88
2023-02-06T09:45:38.035Z,2.03
2023-02-06T09:48:22.163Z,2.13
2023-02-06T09:51:06.064Z,2.23
2023-02-06T09:53:47.491Z,2.18
2023-02-06T09:56:31.682Z,2.23
2023-02-06T09:59:09.561Z,2.16
2023-02-06T10:01:48.035Z,2.22
2023-02-06T10:04:41.936Z,2.23
2023-02-06T10:07:29.162Z,2.19
2023-02-06T10:10:05.966Z,2.10
2023-02-06T10:12:43.224Z,2.14
2023-02-06T10:15:21.154Z,2.14
2023-02-06T10:17:57.856Z,2.14
2023-02-06T10:20:36.571Z,2.04
2023-02-06T10:23:27.001Z,2.11
2023-02-06T10:26:12.653Z,2.18
2023-02-06T10:28:45.809Z,2.13
2023-02-06T10:31:30.393Z,2.02
2023-02-06T10:34:18.086Z,1.99
2023-02-06T10:37:03.030Z,2.12
2023-02-06T10:39:56.527Z,2.12
2023-02-06T10:42:40.700Z,2.25
2023-02-06T10:45:20.616Z,2.21
2023-02-06T10:47:57.799Z,2.16
2023-02-06T10:50:33.271Z,2.28
2023-02-06T10:53:08.644Z,2.31
2023-02-06T10:55:48.903Z,2.21
2023-02-06T10:58:27.289Z,2.15
2023-02-06T11:01:01.073Z,2.16
2023-02-06T11:03:37.524Z,2.15
2023-02-06T11:06:11.525Z,2.08
2023-02-06T11:08:46.119Z,2.08
2023-02-06T11:11:24.096Z,2.13
2023-02-06T11:14:00.507Z,2.17
2023-02-06T11:16:35.867Z,2.28
2023-02-06T11:19:19.395Z,2.24
2023-02-06T11:22:13.231Z,2.19
2023-02-06T11:25:02.622Z,2.16
2023-02-06T11:27:36.598Z,2.09
2023-02-06T11:30:24.222Z,1.99
2023-02-06T11:33:04.645Z,2.02
2023-02-06T11:35:39.901Z,2.00
2023-02-06T11:38:18.584Z,2.03
2023-02-06T11:41:00.918Z,2.13
2023-02-06T11:43:48.416Z,2.07
2023-02-06T11:46:25.662Z,2.02
2023-02-06T11:49:08.318Z,2.01
2023-02-06T11:51:55.074Z,1.88
2023-02-06T11:54:29.302Z,1.83
2023-02-06T11:57:08.312Z,1.76
2023-02-06T11:59:51.268Z,1.66
2023-02-06T12:02:31.856Z,1.62
2023-02-06T12:05:09.029Z,1.57
2023-02-06T12:07:47.921Z,1.61
2023-02-06T12:10:21.803Z,1.65
2023-02-06T12:12:57.408Z,1.71
2023-02-06T12:15:45.835Z,1.71
2023-02-06T12:18:22.432Z,1.79
2023-02-06T12:21:00.569Z,1.75
2023-02-06T12:23:38.343Z,1.76
2023-02-06T12:26:13.635Z,1.82
2023-02-06T12:28:52.310Z,1.82
2023-02-06T12:31:32.465Z,1.78
2023-02-06T12:34:12.791Z,1.86
2023-02-06T12:36:53.730Z,1.84
2023-02-06T12:39:26.746Z,1.81
2023-02-06T12:42:14.513Z,1.75
2023-02-06T12:44:54.004Z,1.75
2023-02-06T12:47:38.810Z,1.74
2023-02-06T12:50:18.711Z,1.71
2023-02-06T12:52:55.627Z,1.76
2023-02-06T12:55:30.715Z,1.89
2023-02-06T12:58:03.203Z,1.94
2023-02-06T13:00:51.344Z,1.79
2023-02-06T13:03:29.052Z,1.72
2023-02-06T13:06:13.652Z,1.76
2023-02-06T13:08:51.933Z,1.74
2023-02-06T13:11:35.601Z,1.79
2023-02-06T13:14:18.333Z,1.82
2023-02-06T13:16:55.252Z,1.80
2023-02-06T13:19:51.022Z,1.76
2023-02-06T13:22:41.812Z,1.84
2023-02-06T13:25:50.790Z,1.83
2023-02-06T13:29:01.482Z,1.94
2023-02-06T13:31:36.008Z,1.88
2023-02-06T13:34:15.567Z,1.83
2023-02-06T13:36:57.063Z,1.82
2023-02-06T13:39:32.615Z,1.89
2023-02-06T13:42:19.645Z,1.89
2023-02-06T13:44:52.278Z,1.91
2023-02-06T13:47:53.766Z,1.88
2023-02-06T13:50:47.915Z,1.87
2023-02-06T13:53:45.368Z,1.84
2023-02-06T13:56:40.037Z,1.88
2023-02-06T13:59:18.493Z,1.94
2023-02-06T14:01:50.423Z,1.97
2023-02-06T14:04:27.121Z,1.82
2023-02-06T14:07:11.875Z,1.69
2023-02-06T14:10:05.509Z,1.77
2023-02-06T14:12:53.372Z,1.86
2023-02-06T14:15:34.861Z,1.77
2023-02-06T14:18:17.927Z,1.64
2023-02-06T14:20:59.910Z,1.47
2023-02-06T14:23:49.108Z,1.44
2023-02-06T14:26:32.986Z,1.36
2023-02-06T14:29:15.126Z,1.31
2023-02-06T14:32:02.266Z,1.30
2023-02-06T14:34:47.884Z,1.35
2023-02-06T14:37:45.243Z,1.36
2023-02-06T14:40:21.886Z,1.34
2023-02-06T14:42:56.372Z,1.25
2023-02-06T14:45:42.170Z,1.17
2023-02-06T14:48:23.857Z,1.00
2023-02-06T14:50:58.815Z,0.92
2023-02-06T14:53:33.248Z,1.01
2023-02-06T14:56:17.233Z,0.97
2023-02-06T14:58:51.624Z,0.99
2023-02-06T15:01:28.662Z,0.92
2023-02-06T15:04:15.102Z,0.85
2023-02-06T15:06:53.110Z,0.88
2023-02-06T15:09:31.120Z,1.03
2023-02-06T15:12:05.497Z,1.09
2023-02-06T15:14:38.222Z,1.04
2023-02-06T15:17:20.252Z,0.97
2023-02-06T15:19:51.889Z,0.89
2023-02-06T15:22:27.341Z,0.83
2023-02-06T15:25:12.411Z,0.83
2023-02-06T15:27:44.128Z,0.92
2023-02-06T15:30:23.278Z,0.77
2023-02-06T15:32:56.450Z,0.77
2023-02-06T15:35:32.422Z,0.78
2023-02-06T15:38:11.628Z,0.56
2023-02-06T15:43:50.124Z,0.53
2023-02-06T15:46:21.708Z,0.43
2023-02-06T15:48:57.663Z,0.31
2023-02-06T15:51:30.622Z,0.19
2023-02-06T15:54:19.720Z,0.19
2023-02-06T15:56:55.423Z,0.15
2023-02-06T15:59:28.766Z,0.01
2023-02-06T16:02:04.088Z,-0.12
2023-02-06T16:04:38.440Z,-0.18
2023-02-06T16:07:17.810Z,-0.28
2023-02-06T16:09:56.232Z,-0.31
2023-02-06T16:12:28.366Z,-0.33
2023-02-06T16:15:02.835Z,-0.29
2023-02-06T16:17:38.281Z,-0.38
2023-02-06T16:20:24.142Z,-0.41
2023-02-06T16:22:57.590Z,-0.45
2023-02-06T16:25:34.287Z,-0.51
2023-02-06T16:28:20.459Z,-0.60
2023-02-06T16:30:59.988Z,-0.66
2023-02-06T16:33:39.146Z,-0.64
2023-02-06T16:36:14.440Z,-0.61
2023-02-06T16:38:54.229Z,-0.67
2023-02-06T16:41:37.342Z,-0.73
2023-02-06T16:44:14.884Z,-0.75
2023-02-06T16:46:46.981Z,-0.86
2023-02-06T16:49:21.003Z,-0.86
2023-02-06T16:51:54.663Z,-0.98
2023-02-06T16:54:29.224Z,-1.02
2023-02-06T16:57:07.581Z,-1.01
2023-02-06T16:59:39.120Z,-1.01
2023-02-06T17:02:15.836Z,-1.12
2023-02-06T17:04:48.195Z,-1.13
2023-02-06T17:07:22.393Z,-1.17
2023-02-06T17:09:57.687Z,-1.23
2023-02-06T17:12:29.994Z,-1.20
2023-02-06T17:15:01.746Z,-1.26
2023-02-06T17:17:34.165Z,-1.32
2023-02-06T17:20:06.866Z,-1.34
2023-02-06T17:22:38.777Z,-1.40
2023-02-06T17:25:13.426Z,-1.46
2023-02-06T17:27:45.012Z,-1.59
2023-02-06T17:30:22.342Z,-1.53
2023-02-06T17:32:54.456Z,-1.45
2023-02-06T17:35:26.522Z,-1.46
2023-02-06T17:37:59.679Z,-1.57
2023-02-06T17:40:34.682Z,-1.61
2023-02-06T17:43:07.522Z,-1.57
2023-02-06T17:45:41.443Z,-1.56
2023-02-06T17:48:13.307Z,-1.42
2023-02-06T17:50:46.099Z,-1.52
2023-02-06T17:53:23.366Z,-1.56
2023-02-06T17:55:56.706Z,-1.62
2023-02-06T17:58:29.378Z,-1.64
2023-02-06T18:01:00.999Z,-1.68
2023-02-06T18:03:33.157Z,-1.64
2023-02-06T18:06:05.500Z,-1.78
2023-02-06T18:08:38.178Z,-1.90
2023-02-06T18:11:15.564Z,-1.90
2023-02-06T18:13:49.088Z,-1.68
2023-02-06T18:16:25.025Z,-1.66
2023-02-06T18:18:59.460Z,-1.54
2023-02-06T18:21:34.320Z,-1.49
2023-02-06T18:24:08.096Z,-1.26
2023-02-06T18:26:41.998Z,-1.19
2023-02-06T18:29:15.899Z,-1.24
2023-02-06T18:31:49.834Z,-1.40
2023-02-06T18:34:23.172Z,-1.45
2023-02-06T18:36:56.136Z,-1.56
2023-02-06T18:39:29.604Z,-1.73
2023-02-06T18:42:24.727Z,-1.91
2023-02-06T18:44:58.585Z,-2.01
2023-02-06T18:47:32.429Z,-2.03
2023-02-06T18:50:08.825Z,-2.03
2023-02-06T18:52:48.237Z,-2.02
2023-02-06T18:55:22.720Z,-2.02
2023-02-06T18:57:59.200Z,-1.99
2023-02-06T19:00:34.999Z,-1.99
2023-02-06T19:03:14.674Z,-1.94
2023-02-06T19:05:49.455Z,-1.90
2023-02-06T19:08:20.390Z,-1.76
2023-02-06T19:10:54.254Z,-1.79
2023-02-06T19:13:27.963Z,-1.89
2023-02-06T19:16:10.134Z,-1.89
2023-02-06T19:18:45.037Z,-1.89
2023-02-06T19:21:20.329Z,-1.89
2023-02-06T19:24:00.337Z,-1.96
2023-02-06T19:26:34.498Z,-2.04
2023-02-06T19:29:09.163Z,-1.89
2023-02-06T19:31:43.342Z,-1.95
2023-02-06T19:34:19.201Z,-1.96
2023-02-06T19:36:57.502Z,-2.01
2023-02-06T19:39:35.129Z,-2.08
2023-02-06T19:42:10.424Z,-2.02
2023-02-06T19:44:49.216Z,-2.05
2023-02-06T19:47:25.981Z,-1.98
2023-02-06T19:50:00.268Z,-2.02
2023-02-06T19:52:35.889Z,-2.01
2023-02-06T19:55:14.510Z,-2.10
2023-02-06T19:57:47.701Z,-2.07
2023-02-06T20:00:22.733Z,-2.15
2023-02-06T20:02:56.122Z,-2.20
2023-02-06T20:05:30.683Z,-2.26
2023-02-06T20:08:07.264Z,-2.31
2023-02-06T20:10:43.730Z,-2.43
2023-02-06T20:13:18.443Z,-2.45
2023-02-06T20:15:50.096Z,-2.46
2023-02-06T20:18:23.861Z,-2.53
2023-02-06T20:20:58.867Z,-2.57
2023-02-06T20:23:36.940Z,-2.63
2023-02-06T20:26:10.171Z,-2.63
2023-02-06T20:28:43.783Z,-2.69
2023-02-06T20:31:17.857Z,-2.63
2023-02-06T20:33:51.783Z,-2.68
2023-02-06T20:36:29.978Z,-2.75
2023-02-06T20:39:07.008Z,-2.80
2023-02-06T20:41:39.918Z,-2.75
2023-02-06T20:44:15.865Z,-2.74
2023-02-06T20:46:49.781Z,-2.80
2023-02-06T20:49:24.856Z,-2.75
2023-02-06T20:51:58.628Z,-2.87
2023-02-06T20:54:32.167Z,-2.93
2023-02-06T20:57:10.398Z,-2.96
2023-02-06T20:59:43.949Z,-2.95
2023-02-06T21:02:18.075Z,-3.00
2023-02-06T21:04:52.880Z,-3.07
2023-02-06T21:07:25.842Z,-3.13
2023-02-06T21:09:58.509Z,-3.17
2023-02-06T21:12:30.950Z,-3.12
2023-02-06T21:15:03.495Z,-3.03
2023-02-06T21:17:35.202Z,-3.06
2023-02-06T21:20:09.795Z,-3.12
2023-02-06T21:22:42.033Z,-3.17
2023-02-06T21:25:13.893Z,-3.09
2023-02-06T21:27:47.116Z,-3.07
2023-02-06T21:30:19.147Z,-3.16
2023-02-06T21:32:50.663Z,-3.23
2023-02-06T21:35:22.535Z,-3.21
2023-02-06T21:37:54.207Z,-3.10
2023-02-06T21:40:25.812Z,-3.11
2023-02-06T21:42:57.401Z,-3.11
2023-02-06T21:45:28.962Z,-3.10
2023-02-06T21:48:00.597Z,-3.20
2023-02-06T21:50:32.064Z,-3.20
2023-02-06T21:53:03.582Z,-3.27
2023-02-06T21:55:35.445Z,-3.31
2023-02-06T21:58:07.078Z,-3.38
2023-02-06T22:00:38.637Z,-3.42
2023-02-06T22:03:10.926Z,-3.46
2023-02-06T22:05:42.518Z,-3.48
2023-02-06T22:08:14.037Z,-3.55
2023-02-06T22:10:45.643Z,-3.56
2023-02-06T22:13:17.169Z,-3.56
2023-02-06T22:15:52.922Z,-3.64
2023-02-06T22:18:24.363Z,-3.71
2023-02-06T22:21:06.101Z,-3.72
2023-02-06T22:23:38.160Z,-3.81
2023-02-06T22:26:10.362Z,-3.83
2023-02-06T22:28:42.077Z,-3.81
2023-02-06T22:31:15.796Z,-3.75
2023-02-06T22:33:47.462Z,-3.70
2023-02-06T22:36:20.832Z,-3.78
2023-02-06T22:38:56.950Z,-3.86
2023-02-06T22:41:28.821Z,-3.83
2023-02-06T22:44:00.639Z,-3.86
2023-02-06T22:46:35.968Z,-3.90
2023-02-06T22:49:09.171Z,-3.95
2023-02-06T22:51:41.520Z,-3.84
2023-02-06T22:54:13.565Z,-3.76
2023-02-06T22:56:45.843Z,-3.81
2023-02-06T22:59:19.579Z,-3.90
2023-02-06T23:01:53.261Z,-3.86
2023-02-06T23:04:26.179Z,-3.73
2023-02-06T23:06:57.937Z,-3.79
2023-02-06T23:09:32.908Z,-3.83
2023-02-06T23:12:05.343Z,-3.76
2023-02-06T23:14:36.906Z,-3.76
2023-02-06T23:17:08.614Z,-3.76
2023-02-06T23:19:40.174Z,-3.82
2023-02-06T23:22:11.570Z,-3.83
2023-02-06T23:24:43.085Z,-3.74
2023-02-06T23:27:14.507Z,-3.70
2023-02-06T23:29:46.128Z,-3.75
2023-02-06T23:32:17.539Z,-3.79
2023-02-06T23:34:49.202Z,-3.79
2023-02-06T23:37:20.683Z,-3.73
2023-02-06T23:39:52.286Z,-3.53
2023-02-06T23:42:24.140Z,-3.46
2023-02-06T23:44:56.262Z,-3.28
2023-02-06T23:47:27.901Z,-3.18
2023-02-06T23:49:59.365Z,-3.26
2023-02-06T23:52:31.017Z,-3.24
2023-02-06T23:55:02.730Z,-3.16
2023-02-06T23:57:36.038Z,-3.10
